Date,TemperatureHighF,TemperatureAvgF,TemperatureLowF,DewpointHighF,DewpointAvgF,DewpointLowF,HumidityHigh,HumidityAvg,HumidityLow,PressureMaxIn,PressureMinIn,WindSpeedMaxMPH,WindSpeedAvgMPH,GustSpeedMaxMPH,PrecipitationSumIn
2013-10-1,88.0,70.4,60.8,67.9,63.5,60.3,99,83,40,29.95,29.88,4,2,10,0.00
2013-10-2,83.7,69.1,58.1,65.9,61.0,55.2,99,80,38,29.98,29.90,5,2,11,0.00
2013-10-3,80.4,67.0,58.1,67.7,61.9,57.8,99,86,48,29.95,29.85,4,0,11,0.00
2013-10-4,90.7,71.9,59.0,83.2,67.9,58.7,99,88,73,29.98,29.89,17,3,30,0.02
2013-10-5,86.2,80.4,71.8,78.9,50.4,13.9,79,42,10,30.09,30.06,11,4,20,0.00
2013-10-6,103.8,83.1,65.8,57.4,38.6,7.8,51,23,10,30.10,29.97,5,1,15,0.00
2013-10-7,88.9,71.0,57.0,61.1,42.1,7.9,99,46,10,29.99,29.92,4,0,11,0.00
2013-10-8,81.0,69.0,59.0,60.1,57.0,52.7,99,69,39,29.95,29.84,4,0,7,0.00
2013-10-9,64.8,59.4,51.6,59.8,51.7,45.6,99,77,56,29.84,29.72,8,2,17,0.07
2013-10-10,70.5,59.1,51.1,53.5,50.8,46.9,99,75,43,30.03,29.81,4,1,7,0.00
2013-10-11,79.7,66.1,53.4,61.5,55.2,45.2,99,72,30,30.05,29.95,7,1,16,0.00
2013-10-12,82.8,67.7,54.1,62.6,56.4,50.0,99,72,36,29.99,29.90,4,1,13,0.00
2013-10-13,82.2,64.7,54.0,60.9,55.2,49.0,99,76,33,30.04,29.95,4,0,10,0.00
2013-10-14,80.2,71.4,54.0,64.5,47.0,13.1,99,49,10,30.03,29.91,7,2,12,0.00
2013-10-15,95.4,80.0,64.2,86.7,31.8,8.7,79,23,10,29.99,29.90,5,1,9,0.00
2013-10-16,69.1,66.0,62.1,39.5,36.8,33.4,34,34,34,30.05,29.98,2,0,5,0.00
2013-10-17,68.9,62.9,56.1,61.8,46.9,23.8,96,61,22,30.03,29.93,5,2,16,0.00
2013-10-18,91.4,72.1,56.1,65.0,52.4,28.1,99,57,11,30.05,29.94,6,1,10,0.00
2013-10-19,83.7,68.6,54.5,63.6,53.2,38.1,99,65,22,30.07,29.95,8,1,14,0.00
2013-10-20,82.9,67.8,54.9,61.1,59.2,54.6,99,78,39,30.00,29.91,3,0,6,0.00
2013-10-21,63.3,57.4,52.5,60.6,56.8,52.2,99,98,87,30.00,29.92,4,1,6,0.00
2013-10-22,61.5,59.2,53.8,60.7,58.8,53.5,99,99,95,29.99,29.91,4,1,8,0.00
2013-10-23,78.6,65.4,59.5,59.8,56.9,52.8,99,76,42,29.99,29.91,4,0,9,0.00
2013-10-24,64.2,59.0,54.9,59.3,57.4,54.6,99,95,78,30.07,29.98,4,2,11,0.00
2013-10-25,75.6,64.5,55.0,58.7,56.5,54.5,99,78,50,30.13,30.03,6,1,12,0.00
2013-10-26,79.9,65.6,55.0,69.0,60.4,54.8,99,85,48,30.10,29.96,8,1,14,0.00
2013-10-27,72.3,66.7,62.2,64.9,62.3,60.3,99,86,69,29.95,29.87,3,0,5,0.00
2013-10-28,75.6,61.5,52.3,53.8,49.6,42.7,89,67,32,29.94,29.85,6,1,14,0.00
2013-10-29,76.1,62.5,48.7,52.8,49.6,45.4,95,66,37,30.01,29.93,4,1,11,0.00
2013-10-30,75.7,59.7,47.7,56.8,49.5,37.8,99,72,40,30.09,30.02,5,2,8,0.00
2013-10-31,81.1,66.7,52.2,56.8,40.2,29.1,85,43,17,30.11,29.99,7,1,13,0.00